Time;durP1;ratioP1;P1;durP2;ratioP2;P2;SDS_P1;SDS_P2;PMS_P1;PMS_P2;Temp;Humidity;BMP_temperature;BMP_pressure;BME280_temperature;BME280_humidity;BME280_pressure;Samples;Min_cycle;Max_cycle;Signal;HPM_P1;HPM_P2
2022/01/09 00:01:08;;;;;;;16.85;6.03;;;;;;;5.07;100.00;98612.47;5010485;28;20030;-77
2022/01/09 00:03:34;;;;;;;18.38;6.47;;;;;;;5.10;100.00;98632.69;5011493;28;20029;-77
2022/01/09 00:05:59;;;;;;;18.48;6.45;;;;;;;5.12;100.00;98630.72;5009323;28;20021;-77
2022/01/09 00:08:24;;;;;;;17.33;5.50;;;;;;;5.12;100.00;98660.00;5011504;28;20033;-77
2022/01/09 00:10:51;;;;;;;11.30;3.35;;;;;;;5.11;100.00;98660.13;5008869;28;20506;-77
2022/01/09 00:13:16;;;;;;;6.15;2.63;;;;;;;5.03;100.00;98682.09;4995830;28;20046;-77
2022/01/09 00:15:43;;;;;;;7.72;2.53;;;;;;;4.97;100.00;98690.63;4993993;28;20022;-77
2022/01/09 00:18:08;;;;;;;7.72;2.67;;;;;;;4.92;100.00;98708.78;4995765;28;20342;-78
2022/01/09 00:20:33;;;;;;;12.88;3.50;;;;;;;4.88;100.00;98730.34;5008760;28;20112;-77
2022/01/09 00:22:58;;;;;;;9.23;2.72;;;;;;;4.86;100.00;98726.97;5010362;28;20064;-77
2022/01/09 00:25:24;;;;;;;10.75;3.05;;;;;;;4.83;100.00;98737.88;4994074;28;20117;-77
2022/01/09 00:27:51;;;;;;;12.60;3.38;;;;;;;4.80;100.00;98758.56;5009159;28;20054;-77
2022/01/09 00:30:19;;;;;;;10.65;3.40;;;;;;;4.78;100.00;98752.53;5002906;28;20041;-77
2022/01/09 00:32:45;;;;;;;14.15;3.05;;;;;;;4.75;100.00;98766.94;5011104;28;20030;-77
2022/01/09 00:35:11;;;;;;;14.88;3.47;;;;;;;4.73;100.00;98763.56;5010407;28;20482;-77
2022/01/09 00:37:37;;;;;;;19.77;3.67;;;;;;;4.69;100.00;98784.25;5009504;28;20034;-77
2022/01/09 00:40:05;;;;;;;16.73;4.05;;;;;;;4.68;100.00;98776.38;5008417;28;20453;-77
2022/01/09 00:42:30;;;;;;;17.65;3.92;;;;;;;4.67;100.00;98795.97;5010138;28;20120;-77
2022/01/09 00:44:55;;;;;;;21.70;4.75;;;;;;;4.67;100.00;98785.34;4992839;28;20116;-77
2022/01/09 00:47:21;;;;;;;25.17;5.55;;;;;;;4.65;100.00;98808.56;5010122;28;20025;-77
2022/01/09 00:49:46;;;;;;;29.75;5.95;;;;;;;4.59;100.00;98809.09;4991117;28;20030;-77
2022/01/09 00:52:12;;;;;;;31.35;6.55;;;;;;;4.53;100.00;98837.84;4990228;28;20528;-77
2022/01/09 00:54:37;;;;;;;24.10;5.90;;;;;;;4.50;100.00;98816.00;4993725;28;20052;-77
2022/01/09 00:57:02;;;;;;;27.13;6.07;;;;;;;4.45;100.00;98819.03;5008833;28;20034;-77
2022/01/09 00:59:28;;;;;;;28.42;5.80;;;;;;;4.45;100.00;98829.66;4992046;28;20029;-77
2022/01/09 01:01:53;;;;;;;32.00;6.43;;;;;;;4.44;100.00;98841.25;5017402;28;20470;-77
2022/01/09 01:04:18;;;;;;;32.65;7.38;;;;;;;4.46;100.00;98836.66;5009397;28;20056;-77
2022/01/09 01:06:45;;;;;;;27.20;5.63;;;;;;;4.46;100.00;98852.63;5007244;28;20026;-77
2022/01/09 01:09:10;;;;;;;23.85;6.00;;;;;;;4.47;100.00;98856.97;5009048;28;20750;-77
2022/01/09 01:11:35;;;;;;;27.80;5.72;;;;;;;4.48;100.00;98861.34;4990781;28;20133;-77
2022/01/09 01:14:00;;;;;;;21.10;5.57;;;;;;;4.51;100.00;98871.72;5014859;28;20434;-77
2022/01/09 01:16:26;;;;;;;25.63;5.57;;;;;;;4.53;99.89;98877.75;4990652;28;20036;-77
2022/01/09 01:18:54;;;;;;;21.27;5.32;;;;;;;4.53;98.87;98879.59;5009793;28;20038;-77
2022/01/09 01:21:19;;;;;;;24.02;5.68;;;;;;;4.53;98.67;98880.41;5005852;28;20036;-77
2022/01/09 01:23:45;;;;;;;24.33;5.57;;;;;;;4.54;98.44;98895.41;4992209;28;20038;-77
2022/01/09 01:26:10;;;;;;;24.10;5.35;;;;;;;4.55;97.79;98891.81;5007731;28;20497;-77
2022/01/09 01:28:35;;;;;;;29.02;5.35;;;;;;;4.58;95.57;98897.84;5009448;28;20045;-77
2022/01/09 01:31:00;;;;;;;22.38;4.88;;;;;;;4.59;96.65;98908.34;5017466;28;20095;-77
2022/01/09 01:33:26;;;;;;;25.08;6.13;;;;;;;4.59;96.93;98910.19;5008699;28;20117;-77
2022/01/09 01:35:51;;;;;;;24.67;5.97;;;;;;;4.56;97.25;98903.28;5008632;28;20030;-77
2022/01/09 01:38:17;;;;;;;26.85;5.97;;;;;;;4.60;97.89;98920.69;5008135;28;20053;-77
2022/01/09 01:40:43;;;;;;;27.45;6.43;;;;;;;4.59;97.52;98936.78;4992587;28;20040;-77
2022/01/09 01:43:09;;;;;;;30.45;6.63;;;;;;;4.62;97.25;98942.69;5008894;28;20041;-77
2022/01/09 01:45:34;;;;;;;33.38;8.13;;;;;;;4.67;97.57;98947.66;4991400;28;20034;-77
2022/01/09 01:48:05;;;;;;;26.63;5.90;;;;;;;4.67;96.47;98959.16;5007883;28;20033;-77
2022/01/09 01:50:36;;;;;;;30.30;6.13;;;;;;;4.69;96.17;98967.00;5007834;28;20033;-77
2022/01/09 01:53:07;;;;;;;28.08;6.32;;;;;;;4.73;95.33;98960.50;5003997;28;20041;-77
2022/01/09 01:55:37;;;;;;;33.53;7.30;;;;;;;4.72;95.35;98975.59;5006268;28;20030;-77
2022/01/09 01:58:05;;;;;;;26.30;6.63;;;;;;;4.73;96.42;98971.97;5008361;28;20026;-77
2022/01/09 02:00:31;;;;;;;33.28;6.95;;;;;;;4.72;96.81;98982.72;4994012;28;20079;-75
2022/01/09 02:02:56;;;;;;;33.33;7.55;;;;;;;4.72;97.46;98996.88;5014566;28;20168;-75
2022/01/09 02:05:21;;;;;;;26.48;6.88;;;;;;;4.71;97.72;98997.00;5008177;28;20473;-74
2022/01/09 02:07:50;;;;;;;29.33;6.45;;;;;;;4.73;97.77;99008.38;4988731;28;20494;-74
2022/01/09 02:10:15;;;;;;;33.00;7.35;;;;;;;4.75;97.12;99017.09;4996928;28;20042;-74
2022/01/09 02:12:40;;;;;;;31.10;7.35;;;;;;;4.78;97.20;99014.19;5008088;28;20095;-74
2022/01/09 02:15:25;;;;;;;28.98;6.93;;;;;;;4.81;97.04;99024.59;4989930;28;20026;-74
2022/01/09 02:17:50;;;;;;;32.47;8.65;;;;;;;4.82;97.00;99039.59;5008724;28;20101;-74
2022/01/09 02:20:15;;;;;;;28.23;7.00;;;;;;;4.86;96.18;99037.53;4990799;28;20160;-74
2022/01/09 02:22:40;;;;;;;31.88;7.28;;;;;;;4.86;96.60;99035.72;4988338;28;20092;-74
2022/01/09 02:25:06;;;;;;;28.33;7.80;;;;;;;4.87;97.19;99041.88;4990633;28;20036;-74
2022/01/09 02:27:33;;;;;;;29.05;7.68;;;;;;;4.87;96.51;99048.03;5007224;28;20348;-74
2022/01/09 02:29:58;;;;;;;38.58;7.95;;;;;;;4.86;97.08;99054.34;4994201;28;20544;-74
2022/01/09 02:32:23;;;;;;;35.97;9.23;;;;;;;4.87;96.60;99055.19;4997056;28;20030;-74
2022/01/09 02:34:50;;;;;;;24.52;6.55;;;;;;;4.88;96.10;99063.06;4990120;28;20155;-74
2022/01/09 02:37:16;;;;;;;27.42;7.75;;;;;;;4.92;95.30;99054.81;5006884;28;20778;-74
2022/01/09 02:39:41;;;;;;;27.85;6.60;;;;;;;4.90;96.05;99063.81;5007366;28;20124;-74
2022/01/09 02:42:22;;;;;;;36.15;7.70;;;;;;;4.89;95.00;99071.88;4988884;28;20033;-74
2022/01/09 02:44:48;;;;;;;22.20;6.18;;;;;;;4.87;95.25;99085.31;5007619;28;20025;-75
2022/01/09 02:47:13;;;;;;;29.38;6.60;;;;;;;4.89;95.69;99088.72;5008125;28;20107;-75
2022/01/09 02:49:39;;;;;;;25.13;6.43;;;;;;;4.89;95.12;99091.38;4990763;28;20040;-75
2022/01/09 02:52:11;;;;;;;19.15;5.25;;;;;;;4.88;94.94;99107.47;5006168;28;20038;-75
2022/01/09 02:57:20;;;;;;;27.92;5.88;;;;;;;4.87;94.12;99111.94;5008180;28;20509;-75
2022/01/09 02:59:45;;;;;;;30.98;5.53;;;;;;;4.86;93.13;99112.91;5007164;28;20034;-74
2022/01/09 03:02:11;;;;;;;24.08;5.40;;;;;;;4.87;92.68;99117.25;5006922;28;20423;-74
2022/01/09 03:04:36;;;;;;;35.25;6.80;;;;;;;4.88;90.97;99132.28;5001188;28;20034;-75
2022/01/09 03:07:01;;;;;;;25.45;5.22;;;;;;;4.89;91.13;99141.09;5007397;28;20109;-74
2022/01/09 03:09:26;;;;;;;22.52;5.63;;;;;;;4.89;91.84;99146.41;5005851;28;20465;-74
2022/01/09 03:11:52;;;;;;;21.80;5.20;;;;;;;4.87;91.21;99154.53;5007166;28;20447;-74
2022/01/09 03:14:17;;;;;;;27.88;6.05;;;;;;;4.86;91.71;99157.31;4994637;28;20052;-74
2022/01/09 03:16:42;;;;;;;26.05;5.50;;;;;;;4.82;89.42;99162.03;5011913;28;20084;-74
2022/01/09 03:19:07;;;;;;;26.20;5.13;;;;;;;4.82;89.88;99172.66;5011711;28;20108;-74
2022/01/09 03:21:33;;;;;;;19.83;4.60;;;;;;;4.81;89.74;99176.28;5012373;28;20033;-74
2022/01/09 03:23:58;;;;;;;23.25;4.85;;;;;;;4.81;90.06;99181.63;5011112;28;20121;-74
2022/01/09 03:26:23;;;;;;;20.42;4.25;;;;;;;4.77;90.91;99171.31;4993270;28;20133;-74
2022/01/09 03:28:49;;;;;;;23.88;5.25;;;;;;;4.73;90.07;99190.19;5011497;28;20113;-74
2022/01/09 03:31:14;;;;;;;23.13;5.32;;;;;;;4.74;89.30;99191.03;4993603;28;20083;-74
2022/01/09 03:33:39;;;;;;;22.95;5.20;;;;;;;4.73;90.02;99205.31;4993626;28;20099;-74
2022/01/09 03:36:04;;;;;;;20.40;4.93;;;;;;;4.72;89.41;99208.94;4991135;28;20044;-74
2022/01/09 03:38:30;;;;;;;22.92;5.65;;;;;;;4.72;89.21;99211.59;5010987;28;20026;-74
2022/01/09 03:40:55;;;;;;;15.55;3.20;;;;;;;4.72;89.74;99222.25;5011049;28;20107;-74
2022/01/09 03:43:20;;;;;;;21.30;5.15;;;;;;;4.72;88.50;99230.22;4992843;28;20482;-74
2022/01/09 03:45:46;;;;;;;15.25;4.20;;;;;;;4.71;88.71;99225.84;5011119;28;20034;-74
2022/01/09 03:48:11;;;;;;;19.27;5.28;;;;;;;4.70;88.89;99233.00;4993488;28;20477;-74
2022/01/09 03:50:36;;;;;;;24.55;4.90;;;;;;;4.69;88.25;99251.75;4993423;28;20036;-74
2022/01/09 03:53:04;;;;;;;26.35;5.38;;;;;;;4.68;89.14;99256.19;5009969;28;20044;-74
2022/01/09 03:55:29;;;;;;;24.98;5.47;;;;;;;4.65;88.30;99255.59;4992423;28;20034;-73
2022/01/09 03:57:54;;;;;;;22.70;4.68;;;;;;;4.62;89.75;99248.69;5010585;28;20045;-74
2022/01/09 04:00:22;;;;;;;27.10;5.05;;;;;;;4.61;88.79;99265.63;4995371;28;20034;-74
2022/01/09 04:02:51;;;;;;;20.55;4.72;;;;;;;4.58;88.92;99271.16;4992551;28;20089;-74
2022/01/09 04:05:17;;;;;;;13.32;3.45;;;;;;;4.56;88.49;99278.41;4993235;28;20476;-74
2022/01/09 04:07:42;;;;;;;21.63;4.32;;;;;;;4.54;89.36;99286.50;5008838;28;20501;-74
2022/01/09 04:10:08;;;;;;;21.92;4.75;;;;;;;4.53;89.17;99284.81;5010487;28;20072;-74
2022/01/09 04:12:47;;;;;;;21.65;4.82;;;;;;;4.52;88.55;99295.56;5008783;28;20112;-74
2022/01/09 04:15:14;;;;;;;26.83;5.20;;;;;;;4.50;88.66;99297.50;4993467;28;20041;-74
2022/01/09 04:17:51;;;;;;;19.08;4.07;;;;;;;4.48;89.59;99296.75;5010523;28;20108;-74
2022/01/09 04:20:17;;;;;;;24.55;4.97;;;;;;;4.46;88.69;99309.31;4994030;28;20493;-73
2022/01/09 04:22:42;;;;;;;25.45;4.32;;;;;;;4.45;87.89;99318.25;5008884;28;20129;-74
2022/01/09 04:25:08;;;;;;;25.92;5.03;;;;;;;4.43;88.27;99326.34;4991537;28;20041;-74
2022/01/09 04:27:35;;;;;;;19.98;4.30;;;;;;;4.42;89.28;99323.78;4991456;28;20026;-76
2022/01/09 04:30:00;;;;;;;27.45;4.88;;;;;;;4.40;87.56;99339.03;5000409;28;20030;-76
2022/01/09 04:32:26;;;;;;;19.73;4.22;;;;;;;4.40;88.66;99342.53;5011996;28;20042;-76
2022/01/09 04:34:51;;;;;;;19.50;4.63;;;;;;;4.37;88.26;99340.09;4992803;28;20021;-76
2022/01/09 04:37:16;;;;;;;23.98;4.35;;;;;;;4.38;88.24;99349.78;4993624;28;20038;-76
2022/01/09 04:39:42;;;;;;;18.42;4.15;;;;;;;4.36;88.35;99352.56;5008500;28;20109;-76
2022/01/09 04:42:07;;;;;;;21.42;4.07;;;;;;;4.35;88.53;99350.00;5009369;28;20133;-76
2022/01/09 04:44:33;;;;;;;21.52;4.05;;;;;;;4.35;87.91;99358.81;5009338;28;20741;-76
2022/01/09 04:47:03;;;;;;;19.02;4.10;;;;;;;4.33;87.61;99360.75;4992615;28;20496;-76
2022/01/09 04:49:36;;;;;;;15.52;4.07;;;;;;;4.32;87.92;99376.78;5010432;28;20033;-76
2022/01/09 04:52:03;;;;;;;20.63;3.90;;;;;;;4.29;87.65;99377.88;5008111;28;20482;-76
2022/01/09 04:54:28;;;;;;;17.33;3.97;;;;;;;4.29;87.69;99390.31;4990241;28;20085;-76
2022/01/09 04:56:54;;;;;;;15.30;3.40;;;;;;;4.27;88.09;99389.59;4991655;28;20068;-76
2022/01/09 04:59:19;;;;;;;21.90;5.03;;;;;;;4.25;87.84;99392.34;5017196;28;20018;-76
2022/01/09 05:01:44;;;;;;;18.80;3.85;;;;;;;4.23;87.98;99404.88;5014942;28;20030;-76
2022/01/09 05:04:09;;;;;;;21.08;4.60;;;;;;;4.20;88.46;99408.63;5009979;28;20359;-76
2022/01/09 05:06:35;;;;;;;15.60;4.05;;;;;;;4.21;88.03;99417.44;5007407;28;20059;-76
2022/01/09 05:09:00;;;;;;;21.00;4.05;;;;;;;4.19;87.85;99428.19;5009783;28;20052;-76
2022/01/09 05:11:25;;;;;;;18.38;3.95;;;;;;;4.22;88.70;99426.28;4990909;28;20061;-76
2022/01/09 05:13:51;;;;;;;18.15;3.97;;;;;;;4.23;87.83;99439.47;5010545;28;20054;-76
2022/01/09 05:16:16;;;;;;;22.35;3.67;;;;;;;4.23;87.98;99452.75;4990473;28;20219;-76
2022/01/09 05:18:51;;;;;;;21.70;4.13;;;;;;;4.24;88.96;99454.47;5009818;28;20030;-76
2022/01/09 05:21:17;;;;;;;14.15;3.88;;;;;;;4.21;89.63;99454.69;5008215;28;20033;-76
2022/01/09 05:23:43;;;;;;;17.42;3.92;;;;;;;4.18;90.77;99484.97;5008803;28;20032;-76
2022/01/09 05:26:09;;;;;;;14.88;3.85;;;;;;;4.15;90.13;99477.22;4978131;28;20034;-76
2022/01/09 05:28:34;;;;;;;26.13;4.45;;;;;;;4.16;91.24;99478.09;4991201;28;20030;-76
2022/01/09 05:30:59;;;;;;;20.38;4.15;;;;;;;4.13;91.85;99478.28;5016720;28;20092;-76
2022/01/09 05:33:25;;;;;;;24.30;4.43;;;;;;;4.10;93.21;99482.03;5000243;28;20033;-76
2022/01/09 05:35:50;;;;;;;21.73;3.92;;;;;;;4.10;92.69;99484.69;4987947;28;20049;-76
2022/01/09 05:38:18;;;;;;;16.75;3.75;;;;;;;4.11;93.05;99493.50;5007132;28;20124;-76
2022/01/09 05:40:43;;;;;;;14.02;3.58;;;;;;;4.09;93.05;99498.91;5007749;28;20045;-76
2022/01/09 05:43:08;;;;;;;17.38;3.70;;;;;;;4.08;93.45;99499.88;4990720;28;20033;-76
2022/01/09 05:45:34;;;;;;;21.70;3.95;;;;;;;4.08;93.27;99499.03;5009172;28;20029;-76
2022/01/09 05:48:00;;;;;;;18.33;4.10;;;;;;;4.09;92.94;99501.56;4991064;28;20030;-76
2022/01/09 05:50:26;;;;;;;17.83;3.75;;;;;;;4.09;92.33;99504.25;5008125;28;20073;-76
2022/01/09 05:52:51;;;;;;;21.73;4.85;;;;;;;4.10;91.80;99510.41;4990314;28;20420;-76
2022/01/09 05:55:16;;;;;;;30.05;5.60;;;;;;;4.12;91.25;99514.66;4991087;28;20037;-76
2022/01/09 05:57:41;;;;;;;19.20;4.07;;;;;;;4.11;90.64;99515.59;5006596;28;20061;-76
2022/01/09 06:00:07;;;;;;;18.58;4.13;;;;;;;4.12;91.02;99521.81;5018401;28;20037;-76
2022/01/09 06:02:33;;;;;;;19.30;4.53;;;;;;;4.11;91.34;99523.59;4991955;28;20064;-76
2022/01/09 06:04:58;;;;;;;17.83;3.55;;;;;;;4.11;90.51;99525.41;4990611;28;20045;-76
2022/01/09 06:07:23;;;;;;;20.92;4.43;;;;;;;4.10;90.50;99521.91;4987620;28;20029;-76
2022/01/09 06:09:48;;;;;;;20.45;4.82;;;;;;;4.11;89.98;99522.75;5008571;28;20068;-77
2022/01/09 06:12:14;;;;;;;12.80;3.17;;;;;;;4.13;90.27;99528.78;5007026;28;20045;-77
2022/01/09 06:14:39;;;;;;;22.52;3.95;;;;;;;4.13;90.07;99536.78;5000624;28;20117;-77
2022/01/09 06:17:04;;;;;;;20.85;4.15;;;;;;;4.12;90.42;99537.75;5007714;28;20343;-77
2022/01/09 06:19:30;;;;;;;20.88;4.63;;;;;;;4.10;89.66;99545.84;4991230;28;20068;-77
2022/01/09 06:21:55;;;;;;;24.80;4.10;;;;;;;4.11;89.71;99544.84;4987984;28;20088;-77
2022/01/09 06:24:20;;;;;;;22.50;5.18;;;;;;;4.11;90.14;99544.84;4991236;28;20033;-77
2022/01/09 06:26:45;;;;;;;20.05;4.72;;;;;;;4.11;90.05;99542.19;5007472;28;20044;-77
2022/01/09 06:29:12;;;;;;;17.30;3.95;;;;;;;4.11;89.76;99550.19;5012670;28;20041;-76
2022/01/09 06:31:38;;;;;;;21.23;3.78;;;;;;;4.11;90.04;99560.81;5003077;28;20060;-77
2022/01/09 06:34:03;;;;;;;17.67;3.85;;;;;;;4.12;89.95;99556.38;5018809;28;20664;-77
2022/01/09 06:36:28;;;;;;;15.20;3.28;;;;;;;4.13;89.31;99560.69;5004132;28;20108;-77
2022/01/09 06:38:53;;;;;;;17.92;4.35;;;;;;;4.14;89.93;99559.75;5008387;28;20033;-77
2022/01/09 06:41:19;;;;;;;16.00;3.70;;;;;;;4.14;89.83;99571.25;4986981;28;20037;-77
2022/01/09 06:43:44;;;;;;;17.38;3.42;;;;;;;4.15;89.51;99583.59;5007588;28;20034;-77
2022/01/09 06:46:10;;;;;;;21.35;5.07;;;;;;;4.16;89.64;99579.97;5007326;28;20048;-76
2022/01/09 06:48:35;;;;;;;17.17;3.65;;;;;;;4.16;89.30;99582.63;4989651;28;20374;-76
2022/01/09 06:51:00;;;;;;;15.40;4.00;;;;;;;4.18;89.59;99578.06;5007938;28;20061;-76
2022/01/09 06:53:26;;;;;;;19.50;4.13;;;;;;;4.19;89.84;99584.25;4989671;28;20040;-76
2022/01/09 06:55:51;;;;;;;18.52;3.53;;;;;;;4.19;89.91;99590.41;5006363;28;20103;-76
2022/01/09 06:58:18;;;;;;;19.67;4.05;;;;;;;4.18;89.22;99599.34;4989557;28;20124;-76
2022/01/09 07:00:45;;;;;;;27.15;4.70;;;;;;;4.18;88.23;99602.00;4993993;28;20401;-76
2022/01/09 07:03:11;;;;;;;19.85;3.75;;;;;;;4.18;88.94;99615.28;4990333;28;20064;-76
2022/01/09 07:05:36;;;;;;;17.42;4.30;;;;;;;4.18;90.00;99609.97;4989743;28;20497;-76
2022/01/09 07:08:01;;;;;;;18.38;3.70;;;;;;;4.16;89.72;99617.22;4989301;28;20405;-76
2022/01/09 07:10:31;;;;;;;20.05;4.25;;;;;;;4.14;89.40;99620.91;4990830;28;20050;-76
2022/01/09 07:12:57;;;;;;;15.27;3.65;;;;;;;4.13;89.78;99627.19;4989505;28;20058;-76
2022/01/09 07:15:23;;;;;;;15.35;3.60;;;;;;;4.12;90.63;99636.97;5008271;28;20044;-76
2022/01/09 07:17:48;;;;;;;19.45;3.90;;;;;;;4.10;90.14;99630.91;5008945;28;20069;-76
2022/01/09 07:20:13;;;;;;;15.68;3.40;;;;;;;4.10;90.93;99636.22;5006208;28;20026;-76
2022/01/09 07:22:38;;;;;;;10.05;3.17;;;;;;;4.08;91.40;99643.44;4988165;28;20124;-76
2022/01/09 07:25:05;;;;;;;14.30;2.63;;;;;;;4.08;92.01;99642.59;5006552;28;20034;-76
2022/01/09 07:27:32;;;;;;;21.52;3.58;;;;;;;4.06;91.84;99649.84;5005738;28;20038;-76
2022/01/09 07:29:57;;;;;;;16.33;3.53;;;;;;;4.01;90.51;99652.78;4991051;28;20112;-76
2022/01/09 07:32:23;;;;;;;25.30;3.85;;;;;;;3.97;90.90;99648.63;5007778;28;20104;-76
2022/01/09 07:34:48;;;;;;;23.70;3.97;;;;;;;3.92;91.48;99656.88;5007655;28;20041;-76
2022/01/09 07:37:13;;;;;;;19.95;3.78;;;;;;;3.92;92.16;99656.03;5004554;28;20045;-76
2022/01/09 07:39:38;;;;;;;16.05;3.42;;;;;;;3.86;91.48;99657.28;5005951;28;20028;-76
2022/01/09 07:42:05;;;;;;;17.67;4.00;;;;;;;3.85;90.56;99675.03;5006316;28;20405;-76
2022/01/09 07:44:30;;;;;;;21.25;4.10;;;;;;;3.88;91.78;99670.47;5007602;28;20034;-76
2022/01/09 07:46:55;;;;;;;22.15;3.45;;;;;;;3.85;90.53;99677.69;5007679;28;20165;-77
2022/01/09 07:49:22;;;;;;;17.52;3.53;;;;;;;3.86;91.50;99689.19;4989307;28;20393;-77
2022/01/09 07:51:47;;;;;;;17.08;3.65;;;;;;;3.82;91.31;99683.22;5005243;28;20489;-77
2022/01/09 07:54:12;;;;;;;13.57;3.13;;;;;;;3.81;91.25;99689.47;4989540;28;20064;-77
2022/01/09 07:56:38;;;;;;;7.88;2.40;;;;;;;3.80;90.31;99692.22;5006785;28;20022;-77
2022/01/09 07:59:03;;;;;;;12.90;3.35;;;;;;;3.78;90.79;99702.13;5010196;28;20041;-77
2022/01/09 08:01:28;;;;;;;14.13;3.22;;;;;;;3.76;89.16;99707.50;5011643;28;20029;-77
2022/01/09 08:03:54;;;;;;;16.10;3.80;;;;;;;3.76;90.58;99702.19;5011145;28;20087;-76
2022/01/09 08:06:19;;;;;;;12.93;3.45;;;;;;;3.73;89.57;99714.84;5009290;28;20025;-76
2022/01/09 08:08:44;;;;;;;13.95;3.60;;;;;;;3.75;89.74;99716.44;4992501;28;20033;-76
2022/01/09 08:11:10;;;;;;;17.92;4.22;;;;;;;3.75;90.69;99715.56;4992941;28;20073;-76
2022/01/09 08:13:35;;;;;;;12.77;4.00;;;;;;;3.74;90.97;99714.72;5011107;28;20069;-76
2022/01/09 08:16:00;;;;;;;16.85;2.88;;;;;;;3.74;90.76;99719.22;5010507;28;20032;-76
2022/01/09 08:18:25;;;;;;;14.45;3.88;;;;;;;3.74;89.50;99720.06;4992789;28;20037;-76
2022/01/09 08:20:51;;;;;;;14.88;3.97;;;;;;;3.77;90.87;99727.81;5009401;28;20156;-76
2022/01/09 08:23:17;;;;;;;15.00;3.88;;;;;;;3.82;90.35;99743.47;5011482;28;20364;-76
2022/01/09 08:25:43;;;;;;;10.13;2.70;;;;;;;3.82;90.45;99739.03;4992326;28;20051;-76
2022/01/09 08:28:08;;;;;;;14.65;3.25;;;;;;;3.84;89.37;99746.91;4992544;28;20030;-76
2022/01/09 08:30:34;;;;;;;12.07;2.38;;;;;;;3.85;91.01;99743.28;4996281;28;20029;-76
2022/01/09 08:32:59;;;;;;;16.20;3.33;;;;;;;3.85;90.41;99744.16;4992439;28;20057;-76
2022/01/09 08:35:24;;;;;;;16.95;3.72;;;;;;;3.89;91.09;99741.28;4990735;28;20030;-76
2022/01/09 08:37:51;;;;;;;10.48;2.90;;;;;;;3.90;90.93;99748.31;5007143;28;20040;-76
2022/01/09 08:40:22;;;;;;;16.15;3.65;;;;;;;3.93;90.52;99748.13;5009471;28;20061;-76
2022/01/09 08:42:49;;;;;;;17.50;3.85;;;;;;;3.94;91.09;99752.47;4993197;28;20080;-76
2022/01/09 08:45:15;;;;;;;16.33;3.65;;;;;;;3.95;90.86;99757.72;5010503;28;20030;-76
2022/01/09 08:47:41;;;;;;;15.63;3.28;;;;;;;3.93;91.45;99754.28;5009790;28;20504;-76
2022/01/09 08:50:08;;;;;;;17.33;4.38;;;;;;;3.93;91.92;99761.44;5008154;28;20029;-76
2022/01/09 08:52:34;;;;;;;15.05;3.35;;;;;;;3.90;91.22;99766.94;5008522;28;20065;-76
2022/01/09 08:55:00;;;;;;;16.13;3.47;;;;;;;3.89;91.31;99765.22;5008571;28;20053;-76
2022/01/09 08:57:25;;;;;;;19.35;3.40;;;;;;;3.88;91.28;99775.00;5007911;28;20107;-77
2022/01/09 08:59:52;;;;;;;11.82;2.72;;;;;;;3.91;90.80;99779.25;5008961;28;20092;-77
2022/01/09 09:02:17;;;;;;;20.95;3.90;;;;;;;3.96;91.12;99785.16;5010611;28;20057;-77
2022/01/09 09:04:42;;;;;;;15.45;3.60;;;;;;;3.98;91.19;99785.91;5001178;28;20557;-77
2022/01/09 09:07:08;;;;;;;18.40;3.70;;;;;;;4.04;91.29;99793.47;4996655;28;20049;-77
2022/01/09 09:09:33;;;;;;;17.42;4.22;;;;;;;4.09;91.40;99796.72;4989834;28;20104;-77
2022/01/09 09:11:58;;;;;;;16.27;3.22;;;;;;;4.18;91.18;99796.13;4990556;28;20050;-77
2022/01/09 09:14:23;;;;;;;12.80;3.42;;;;;;;4.27;92.12;99801.81;5009719;28;20084;-77
2022/01/09 09:16:49;;;;;;;17.20;3.85;;;;;;;4.34;91.79;99808.44;5007114;28;20576;-77
2022/01/09 09:19:14;;;;;;;14.23;4.10;;;;;;;4.37;91.53;99801.13;4991156;28;20096;-77
2022/01/09 09:21:39;;;;;;;20.15;4.30;;;;;;;4.39;90.24;99811.66;5007267;28;20037;-77
2022/01/09 09:24:05;;;;;;;16.80;3.88;;;;;;;4.41;90.71;99814.22;5008334;28;20044;-77
2022/01/09 09:26:30;;;;;;;20.73;4.00;;;;;;;4.43;90.23;99812.34;4997934;28;20108;-77
2022/01/09 09:28:55;;;;;;;20.63;4.35;;;;;;;4.42;89.78;99819.44;4997925;28;20033;-77
2022/01/09 09:31:21;;;;;;;14.45;3.22;;;;;;;4.43;90.22;99823.81;5017021;28;20029;-77
2022/01/09 09:33:47;;;;;;;14.35;3.80;;;;;;;4.45;90.76;99824.59;5008190;28;20549;-77
2022/01/09 09:36:13;;;;;;;15.30;4.22;;;;;;;4.48;89.94;99837.69;5007370;28;20155;-77
2022/01/09 09:38:38;;;;;;;17.67;3.72;;;;;;;4.53;90.23;99832.91;4990270;28;20557;-77
2022/01/09 09:41:04;;;;;;;15.45;4.25;;;;;;;4.59;90.24;99836.16;5007913;28;20044;-78
2022/01/09 09:43:29;;;;;;;12.75;3.05;;;;;;;4.62;89.21;99828.81;5010091;28;20499;-77
2022/01/09 09:45:54;;;;;;;16.00;3.60;;;;;;;4.65;89.56;99841.06;4991354;28;20076;-77
2022/01/09 09:48:20;;;;;;;22.98;4.78;;;;;;;4.69;90.74;99863.88;4990528;28;20073;-77
2022/01/09 09:50:46;;;;;;;16.73;3.90;;;;;;;4.63;88.49;99869.59;5008069;28;20049;-77
2022/01/09 09:53:11;;;;;;;13.65;3.47;;;;;;;4.52;89.19;99870.25;4991355;28;20455;-77
2022/01/09 09:55:37;;;;;;;13.55;3.40;;;;;;;4.46;88.88;99860.03;4991047;28;20030;-77
2022/01/09 09:58:03;;;;;;;14.27;3.00;;;;;;;4.40;90.21;99869.25;5008094;28;20040;-77
2022/01/09 10:00:28;;;;;;;12.70;3.13;;;;;;;4.34;89.51;99869.63;4996935;28;20038;-77
2022/01/09 10:03:01;;;;;;;14.60;3.55;;;;;;;4.33;91.53;99875.91;5007549;28;20022;-77
2022/01/09 10:05:39;;;;;;;13.95;3.33;;;;;;;4.32;91.04;99871.53;4988508;28;20037;-77
2022/01/09 10:08:15;;;;;;;21.65;4.15;;;;;;;4.37;92.05;99877.41;4988082;28;20025;-77
2022/01/09 10:10:41;;;;;;;16.95;3.72;;;;;;;4.42;92.67;99871.81;5005355;28;20058;-77
2022/01/09 10:13:16;;;;;;;27.58;4.63;;;;;;;4.50;93.40;99869.53;4990515;28;20061;-77
2022/01/09 10:15:57;;;;;;;20.67;4.63;;;;;;;4.60;92.61;99875.09;5016200;28;20116;-77
2022/01/09 10:18:43;;;;;;;22.55;4.45;;;;;;;4.69;92.82;99872.69;4987435;28;20033;-77
2022/01/09 10:21:15;;;;;;;26.42;4.53;;;;;;;4.75;91.82;99873.28;4986558;28;20079;-77
2022/01/09 10:24:01;;;;;;;18.67;5.18;;;;;;;4.81;92.02;99881.69;4970841;28;20117;-77
2022/01/09 10:26:28;;;;;;;18.52;4.88;;;;;;;4.85;91.30;99885.03;4989597;28;20608;-77
2022/01/09 10:28:53;;;;;;;19.83;3.95;;;;;;;4.88;90.42;99880.34;4986313;28;20030;-77
2022/01/09 10:31:19;;;;;;;25.20;4.75;;;;;;;4.95;91.35;99879.94;4998407;28;20427;-77
2022/01/09 10:34:06;;;;;;;13.75;4.03;;;;;;;4.99;89.80;99886.78;4986992;28;20492;-77
2022/01/09 10:36:38;;;;;;;14.85;3.85;;;;;;;5.03;90.41;99877.63;4989300;28;20034;-77
2022/01/09 10:39:18;;;;;;;20.15;4.60;;;;;;;5.08;90.06;99891.47;4988481;28;20053;-77
2022/01/09 10:41:55;;;;;;;26.60;4.78;;;;;;;5.13;91.02;99891.22;5001965;28;21177;-77
2022/01/09 10:44:25;;;;;;;19.15;4.35;;;;;;;5.18;90.02;99892.63;5003691;28;20121;-77
2022/01/09 10:47:14;;;;;;;20.80;4.15;;;;;;;5.25;90.69;99899.22;5008357;28;20125;-77
2022/01/09 10:49:47;;;;;;;21.63;4.32;;;;;;;5.27;88.27;99892.94;4987927;28;20049;-77
2022/01/09 10:52:22;;;;;;;21.15;4.50;;;;;;;5.32;89.41;99901.50;5003420;28;20060;-77
2022/01/09 10:54:49;;;;;;;22.13;4.68;;;;;;;5.36;89.57;99897.63;5003991;28;20041;-77
2022/01/09 10:57:29;;;;;;;16.75;3.88;;;;;;;5.40;88.97;99900.03;4984505;28;20158;-77
2022/01/09 11:00:04;;;;;;;23.50;4.65;;;;;;;5.46;87.68;99903.22;4986199;28;20076;-77
2022/01/09 11:02:29;;;;;;;26.08;4.43;;;;;;;5.49;88.24;99898.56;4986180;28;20038;-77
2022/01/09 11:04:54;;;;;;;15.35;4.13;;;;;;;5.58;87.94;99907.75;5002016;28;20544;-77
2022/01/09 11:07:20;;;;;;;19.05;4.07;;;;;;;5.63;86.31;99913.59;4997104;28;20045;-77
2022/01/09 11:09:48;;;;;;;20.23;4.05;;;;;;;5.69;86.89;99918.50;4999829;28;20033;-76
2022/01/09 11:12:17;;;;;;;22.40;4.35;;;;;;;5.70;85.74;99914.91;4978059;28;20068;-77
2022/01/09 11:14:43;;;;;;;15.77;4.20;;;;;;;5.69;85.14;99921.16;4984534;28;20387;-77
2022/01/09 11:17:09;;;;;;;15.30;3.95;;;;;;;5.65;84.28;99924.16;4985595;28;20063;-77
2022/01/09 11:19:35;;;;;;;23.42;4.70;;;;;;;5.63;85.12;99934.06;4982463;28;20037;-77
2022/01/09 11:22:05;;;;;;;19.23;3.92;;;;;;;5.65;85.58;99927.69;4978621;28;20045;-78
2022/01/09 11:24:58;;;;;;;18.33;3.50;;;;;;;5.73;85.69;99924.50;4978346;28;20052;-77
2022/01/09 11:27:45;;;;;;;16.10;3.53;;;;;;;5.79;85.85;99934.75;4979836;28;20079;-77
2022/01/09 11:30:29;;;;;;;20.00;4.15;;;;;;;5.79;84.84;99932.06;4984249;28;20034;-77
2022/01/09 11:33:21;;;;;;;20.52;3.78;;;;;;;5.75;85.04;99926.13;4984603;28;20270;-77